Terminal Aerodrome Forecast
Issued by NWS Houston/Galveston, TX

Home | Current Version | Previous Version | Text Only | Print | Product List | Glossary On
Versions: 1 2 3 4 5 6 7 8 9 10 11 12 13 14 15 16 17 18 19 20 21 22 23 24 25 26 27 28 29 30 31 32 33 34 35 36 37 38 39 40 41 42 43 44 45 46 47 48 49 50
193
FTUS44 KHGX 161740
TAFCLL
TAF
KCLL 161740Z 1618/1718 24005KT P6SM -RA VCSH FEW011 BKN035 OVC070
     FM162000 VRB04KT P6SM -RA BKN035 OVC090
      TEMPO 1620/1624 TSRA BKN030CB OVC080
     FM170100 05003KT 6SM BR VCSH SCT008 OVC015
     FM170500 03005KT 4SM BR VCSH OVC005
      TEMPO 1707/1711 2SM SHRA BR BKN003 OVC008
     FM171100 03008KT 5SM BR VCTS BKN006 OVC010CB
      TEMPO 1712/1716 3SM TSRA BKN008CB OVC020=

USA.gov is the U.S. government's official web portal to all federal, state and local government web resources and services.